Time;durP1;ratioP1;P1;durP2;ratioP2;P2;SDS_P1;SDS_P2;PMS_P1;PMS_P2;Temp;Humidity;BMP_temperature;BMP_pressure;BME280_temperature;BME280_humidity;BME280_pressure;Samples;Min_cycle;Max_cycle;Signal;HPM_P1;HPM_P2
2022/01/21 00:01:27;;;;;;;3.90;2.43;;;7.30;55.80;;;;;;4968055;28;20954;-44
2022/01/21 00:03:54;;;;;;;7.70;2.63;;;7.20;55.70;;;;;;4965566;28;20538;-46
2022/01/21 00:06:20;;;;;;;6.30;3.00;;;7.20;55.70;;;;;;4966887;28;20289;-44
2022/01/21 00:08:48;;;;;;;8.40;2.80;;;7.20;56.00;;;;;;4963224;28;20490;-44
2022/01/21 00:11:15;;;;;;;6.00;2.33;;;7.30;55.80;;;;;;4967772;28;20529;-44
2022/01/21 00:13:41;;;;;;;7.17;2.23;;;7.30;55.70;;;;;;4961407;28;21006;-45
2022/01/21 00:16:10;;;;;;;8.53;3.23;;;7.40;55.60;;;;;;4966390;28;20450;-45
2022/01/21 00:18:38;;;;;;;6.30;2.80;;;7.40;55.60;;;;;;4972313;28;20818;-44
2022/01/21 00:32:12;;;;;;;7.43;2.80;;;7.40;55.00;;;;;;4970711;28;20470;-44
2022/01/21 00:34:38;;;;;;;9.43;2.70;;;7.10;55.00;;;;;;4970759;28;20933;-44
2022/01/21 00:37:03;;;;;;;5.20;2.57;;;7.10;55.10;;;;;;4971171;28;20250;-44
2022/01/21 00:39:31;;;;;;;5.37;2.37;;;7.10;55.60;;;;;;4969393;28;20199;-44
2022/01/21 00:44:26;;;;;;;5.90;2.37;;;7.30;55.30;;;;;;4967097;28;20459;-44
2022/01/21 00:46:52;;;;;;;8.67;2.70;;;7.30;55.20;;;;;;4968886;28;20486;-45
2022/01/21 00:49:18;;;;;;;9.13;3.30;;;7.30;55.20;;;;;;4967479;28;20443;-45
2022/01/21 00:51:43;;;;;;;7.10;3.03;;;7.30;55.20;;;;;;4966026;28;20685;-44
2022/01/21 00:54:09;;;;;;;8.40;3.10;;;7.40;55.10;;;;;;4966432;28;20442;-44
2022/01/21 00:56:35;;;;;;;7.27;2.60;;;7.40;55.20;;;;;;4968219;28;20246;-45
2022/01/21 00:59:00;;;;;;;8.43;3.70;;;7.30;55.20;;;;;;4966987;28;20215;-44
2022/01/21 01:01:26;;;;;;;10.20;3.17;;;7.30;55.30;;;;;;4968157;28;20199;-45
2022/01/21 01:03:52;;;;;;;9.03;2.70;;;7.30;55.30;;;;;;4969513;28;20282;-45
2022/01/21 01:06:18;;;;;;;6.77;2.93;;;7.40;55.20;;;;;;4970076;28;20191;-46
2022/01/21 01:08:44;;;;;;;5.23;2.40;;;7.40;55.00;;;;;;4969314;28;20497;-45
2022/01/21 01:21:45;;;;;;;7.70;3.33;;;7.50;54.80;;;;;;4966946;28;20872;-44
2022/01/21 01:29:24;;;;;;;12.00;3.80;;;7.20;54.90;;;;;;4967136;28;20513;-46
2022/01/21 01:31:51;;;;;;;12.57;4.97;;;7.20;55.30;;;;;;4967474;28;20447;-44
2022/01/21 01:34:18;;;;;;;7.83;3.73;;;7.30;55.20;;;;;;4968904;28;21035;-44
2022/01/21 01:36:46;;;;;;;5.20;3.40;;;7.20;54.90;;;;;;4967468;28;20810;-45
2022/01/21 01:42:32;;;;;;;6.10;2.40;;;7.20;55.00;;;;;;4968827;28;20679;-44
2022/01/21 01:50:34;;;;;;;3.50;2.80;;;7.10;55.30;;;;;;4971938;28;20492;-44
2022/01/21 01:53:00;;;;;;;5.17;2.30;;;7.00;55.20;;;;;;4970434;28;20442;-46
2022/01/21 01:55:26;;;;;;;5.10;2.73;;;7.00;55.60;;;;;;4969538;28;20439;-44
2022/01/21 01:57:52;;;;;;;4.23;2.30;;;7.00;55.60;;;;;;4968459;28;21037;-44
2022/01/21 02:00:18;;;;;;;9.57;2.40;;;7.00;55.40;;;;;;4966243;28;20453;-44
2022/01/21 02:02:44;;;;;;;6.83;2.70;;;7.00;55.50;;;;;;4961562;28;21286;-44
2022/01/21 02:05:09;;;;;;;5.17;2.70;;;7.00;55.40;;;;;;4969197;28;20202;-44
2022/01/21 02:07:35;;;;;;;5.70;3.10;;;7.00;55.60;;;;;;4970765;28;20242;-44
2022/01/21 02:10:00;;;;;;;9.07;2.73;;;7.00;55.50;;;;;;4968442;28;20643;-44
2022/01/21 02:12:26;;;;;;;4.90;2.53;;;7.00;55.60;;;;;;4963720;28;20202;-44
2022/01/21 02:14:54;;;;;;;6.43;3.77;;;7.00;55.70;;;;;;4962548;28;20199;-44
2022/01/21 02:22:44;;;;;;;4.30;2.00;;;6.90;56.20;;;;;;4967957;28;20505;-45
2022/01/21 02:25:15;;;;;;;5.37;3.00;;;7.00;56.30;;;;;;4965826;28;20451;-45
2022/01/21 02:27:43;;;;;;;3.83;2.33;;;6.90;56.40;;;;;;4964536;28;20493;-44
2022/01/21 02:30:09;;;;;;;7.43;2.77;;;6.80;56.70;;;;;;4968662;28;20451;-44
2022/01/21 02:32:35;;;;;;;8.33;3.53;;;6.90;57.00;;;;;;4967719;28;20497;-44
2022/01/21 02:35:00;;;;;;;5.43;3.30;;;7.00;56.70;;;;;;4967134;28;20458;-44
2022/01/21 02:37:26;;;;;;;5.03;2.90;;;7.00;56.40;;;;;;4968005;28;20191;-45
2022/01/21 02:39:52;;;;;;;7.73;3.20;;;7.10;56.30;;;;;;4972354;28;20202;-49
2022/01/21 02:42:17;;;;;;;7.03;2.80;;;7.00;56.20;;;;;;4972407;28;20305;-44
2022/01/21 02:44:43;;;;;;;7.37;2.80;;;7.00;56.30;;;;;;4968328;28;20443;-45
2022/01/21 02:47:09;;;;;;;3.60;2.53;;;7.10;56.20;;;;;;4966812;28;20242;-45
2022/01/21 02:49:35;;;;;;;8.40;3.13;;;7.10;56.10;;;;;;4966522;28;20442;-44
2022/01/21 02:52:03;;;;;;;7.97;3.03;;;7.20;56.00;;;;;;4966573;28;20439;-45
2022/01/21 02:54:30;;;;;;;6.10;2.70;;;7.30;55.90;;;;;;4969698;28;20482;-44
2022/01/21 02:56:58;;;;;;;7.00;2.10;;;7.30;55.60;;;;;;4970511;28;20497;-44
2022/01/21 02:59:24;;;;;;;3.60;2.23;;;7.30;55.90;;;;;;4967185;28;20977;-44
2022/01/21 03:01:50;;;;;;;9.80;3.07;;;7.20;56.00;;;;;;4969388;28;20553;-44
2022/01/21 03:04:26;;;;;;;4.37;2.67;;;7.10;56.00;;;;;;4972895;28;20529;-46
2022/01/21 03:06:52;;;;;;;5.27;2.53;;;7.10;56.10;;;;;;4971961;28;20256;-44
2022/01/21 03:09:17;;;;;;;6.37;2.50;;;7.10;56.20;;;;;;4972590;28;20439;-45
2022/01/21 03:11:43;;;;;;;4.97;2.47;;;7.10;56.30;;;;;;4973928;28;20206;-44
2022/01/21 03:14:08;;;;;;;6.00;2.97;;;7.10;56.10;;;;;;4972258;28;20195;-44
2022/01/21 03:16:34;;;;;;;5.40;2.67;;;7.10;56.10;;;;;;4973850;28;20594;-44
2022/01/21 03:19:00;;;;;;;5.53;2.83;;;7.20;56.00;;;;;;4974892;28;20281;-45
2022/01/21 03:21:26;;;;;;;6.53;2.70;;;7.20;55.70;;;;;;4979551;28;20195;-44
2022/01/21 03:23:54;;;;;;;9.63;2.67;;;7.10;55.40;;;;;;4974728;28;20934;-45
2022/01/21 03:26:23;;;;;;;4.33;2.10;;;7.20;55.50;;;;;;4972544;28;20199;-44
2022/01/21 03:28:51;;;;;;;4.73;2.70;;;7.10;55.30;;;;;;4973164;28;20500;-46
2022/01/21 03:31:16;;;;;;;5.33;2.73;;;7.10;55.40;;;;;;4973412;28;20968;-45
2022/01/21 03:33:43;;;;;;;6.53;2.23;;;7.20;55.30;;;;;;4973193;28;20446;-44
2022/01/21 03:36:10;;;;;;;8.03;2.83;;;7.20;55.30;;;;;;4970597;28;20199;-45
2022/01/21 03:38:36;;;;;;;6.20;2.60;;;7.10;55.30;;;;;;4972483;28;20442;-44
2022/01/21 03:41:03;;;;;;;5.10;2.40;;;7.10;55.50;;;;;;4976535;28;20536;-44
2022/01/21 03:43:29;;;;;;;6.70;2.87;;;7.10;55.30;;;;;;4972416;28;20801;-46
2022/01/21 03:45:55;;;;;;;8.00;3.23;;;7.20;55.30;;;;;;4974049;28;20446;-44
2022/01/21 03:48:21;;;;;;;8.77;2.37;;;7.30;54.90;;;;;;4972445;28;20492;-46
2022/01/21 03:50:47;;;;;;;3.40;3.10;;;7.10;54.80;;;;;;4973989;28;21247;-46
2022/01/21 03:53:13;;;;;;;6.13;2.90;;;7.20;55.20;;;;;;4972990;28;20443;-44
2022/01/21 03:55:39;;;;;;;5.53;2.40;;;7.10;55.00;;;;;;4973399;28;20455;-45
2022/01/21 03:58:07;;;;;;;4.80;1.83;;;7.10;55.20;;;;;;4970519;28;20450;-44
2022/01/21 04:00:40;;;;;;;10.40;2.80;;;7.10;55.30;;;;;;4969083;28;20212;-45
2022/01/21 04:03:06;;;;;;;6.23;2.70;;;7.10;55.20;;;;;;4971249;28;20457;-45
2022/01/21 04:05:32;;;;;;;11.00;2.40;;;7.10;55.10;;;;;;4967578;28;20450;-45
2022/01/21 04:07:57;;;;;;;6.83;2.73;;;7.00;55.10;;;;;;4967027;28;20718;-44
2022/01/21 04:10:23;;;;;;;5.53;1.97;;;7.00;55.20;;;;;;4970180;28;20202;-44
2022/01/21 04:12:50;;;;;;;8.47;2.77;;;7.10;55.20;;;;;;4969490;28;20199;-45
2022/01/21 04:15:16;;;;;;;4.27;2.33;;;7.10;55.10;;;;;;4974489;28;20521;-45
2022/01/21 04:17:41;;;;;;;3.57;2.63;;;7.20;54.90;;;;;;4971382;28;20581;-45
2022/01/21 04:20:09;;;;;;;5.20;2.77;;;7.20;55.00;;;;;;4973036;28;20529;-47
2022/01/21 04:22:35;;;;;;;3.77;2.17;;;7.20;54.90;;;;;;4970544;28;20950;-45
2022/01/21 04:25:01;;;;;;;8.17;2.60;;;7.20;55.00;;;;;;4965094;28;20520;-46
2022/01/21 04:27:27;;;;;;;7.50;3.03;;;7.20;54.80;;;;;;4967072;28;20979;-44
2022/01/21 04:29:53;;;;;;;12.03;3.47;;;7.20;54.80;;;;;;4961137;28;20542;-44
2022/01/21 04:32:19;;;;;;;7.77;2.80;;;7.20;54.90;;;;;;4964940;28;20633;-46
2022/01/21 04:34:45;;;;;;;7.33;2.97;;;7.20;54.70;;;;;;4970293;28;20547;-46
2022/01/21 04:37:12;;;;;;;7.83;2.77;;;7.20;54.60;;;;;;4966820;28;20697;-45
2022/01/21 04:39:46;;;;;;;4.83;2.50;;;7.20;54.70;;;;;;4968370;28;20241;-45
2022/01/21 04:47:28;;;;;;;6.50;2.70;;;7.00;55.20;;;;;;4969847;28;20584;-44
2022/01/21 04:49:54;;;;;;;6.57;3.00;;;7.10;55.10;;;;;;4971597;28;20455;-44
2022/01/21 04:52:20;;;;;;;7.77;3.57;;;7.10;54.70;;;;;;4971814;28;20195;-45
2022/01/21 04:54:46;;;;;;;6.37;3.13;;;7.10;55.00;;;;;;4970038;28;20604;-45
2022/01/21 04:57:12;;;;;;;7.50;2.77;;;7.00;55.00;;;;;;4969259;28;20465;-44
2022/01/21 04:59:39;;;;;;;9.57;3.10;;;6.90;55.10;;;;;;4969401;28;20937;-45
2022/01/21 05:02:05;;;;;;;5.20;3.40;;;7.00;55.20;;;;;;4960073;28;21006;-45
2022/01/21 05:04:31;;;;;;;12.10;3.30;;;7.10;54.90;;;;;;4969281;28;20454;-44
2022/01/21 05:06:56;;;;;;;9.03;3.33;;;7.10;54.80;;;;;;4970105;28;21311;-44
2022/01/21 05:09:29;;;;;;;7.00;3.80;;;7.20;54.90;;;;;;4961795;28;20207;-45
2022/01/21 05:11:56;;;;;;;9.90;3.70;;;7.20;54.80;;;;;;4965932;28;20680;-44
2022/01/21 05:14:25;;;;;;;4.73;3.03;;;7.20;54.70;;;;;;4968361;28;20451;-44
2022/01/21 05:17:00;;;;;;;5.63;2.53;;;7.10;54.70;;;;;;4965924;28;20799;-44
2022/01/21 05:19:26;;;;;;;7.97;3.30;;;7.20;54.60;;;;;;4970172;28;20446;-46
2022/01/21 05:21:51;;;;;;;8.50;3.00;;;7.20;54.60;;;;;;4964838;28;20453;-45
2022/01/21 05:24:22;;;;;;;6.73;3.00;;;7.30;54.50;;;;;;4962758;28;20201;-45
2022/01/21 05:26:58;;;;;;;5.63;2.87;;;7.30;54.30;;;;;;4966621;28;20454;-44
2022/01/21 05:29:29;;;;;;;5.03;3.30;;;7.30;54.40;;;;;;4966827;28;20450;-44
2022/01/21 05:31:56;;;;;;;8.13;3.93;;;7.20;54.40;;;;;;4965358;28;20458;-44
2022/01/21 05:34:22;;;;;;;9.43;3.13;;;7.20;54.60;;;;;;4966819;28;20443;-44
2022/01/21 05:36:48;;;;;;;9.90;3.93;;;7.10;54.70;;;;;;4964352;28;20469;-44
2022/01/21 05:39:16;;;;;;;6.33;3.13;;;7.10;54.60;;;;;;4970496;28;20454;-44
2022/01/21 05:41:46;;;;;;;7.20;3.00;;;7.20;54.60;;;;;;4973618;28;20234;-44
2022/01/21 05:47:08;;;;;;;5.33;2.87;;;7.20;54.80;;;;;;4954182;28;20467;-45
2022/01/21 05:49:36;;;;;;;5.70;3.33;;;7.10;55.20;;;;;;4969301;28;20457;-45
2022/01/21 05:52:06;;;;;;;8.07;2.97;;;7.00;54.80;;;;;;4972835;28;20865;-45
2022/01/21 05:54:32;;;;;;;5.20;2.63;;;7.00;54.90;;;;;;4968229;28;20508;-44
2022/01/21 05:57:01;;;;;;;6.40;2.87;;;7.10;54.90;;;;;;4967964;28;20457;-45
2022/01/21 05:59:26;;;;;;;13.80;4.90;;;7.10;54.80;;;;;;4968349;28;20447;-44
2022/01/21 06:01:52;;;;;;;6.00;2.87;;;7.10;54.80;;;;;;4969061;28;20459;-44
2022/01/21 06:04:18;;;;;;;6.00;3.67;;;7.10;54.70;;;;;;4974886;28;20195;-45
2022/01/21 06:06:44;;;;;;;10.70;2.90;;;7.20;54.60;;;;;;4969218;28;20203;-45
2022/01/21 06:09:09;;;;;;;5.00;3.00;;;7.20;54.50;;;;;;4967258;28;20195;-45
2022/01/21 06:11:35;;;;;;;12.70;3.73;;;7.30;54.50;;;;;;4965247;28;20234;-44
2022/01/21 06:14:02;;;;;;;5.30;3.00;;;7.20;54.60;;;;;;4968231;28;20227;-45
2022/01/21 06:16:29;;;;;;;12.87;3.40;;;7.30;54.50;;;;;;4969262;28;20927;-44
2022/01/21 06:18:55;;;;;;;20.57;4.33;;;7.30;54.50;;;;;;4965194;28;20497;-44
2022/01/21 06:21:20;;;;;;;11.10;3.90;;;7.50;55.60;;;;;;4966869;28;20861;-45
2022/01/21 06:23:46;;;;;;;9.57;3.57;;;7.80;56.00;;;;;;4968373;28;20215;-46
2022/01/21 06:26:12;;;;;;;8.83;3.53;;;8.00;55.20;;;;;;4965318;28;20277;-44
2022/01/21 06:28:38;;;;;;;5.33;2.97;;;8.20;54.10;;;;;;4966868;28;20230;-44
2022/01/21 06:31:04;;;;;;;8.73;3.40;;;8.30;53.40;;;;;;4967969;28;20458;-44
2022/01/21 06:33:29;;;;;;;6.80;3.30;;;8.30;53.20;;;;;;4967368;28;20199;-44
2022/01/21 06:35:55;;;;;;;9.73;3.90;;;8.40;52.70;;;;;;4967602;28;20530;-43
2022/01/21 06:38:22;;;;;;;8.37;3.63;;;8.40;52.60;;;;;;4968140;28;20187;-44
2022/01/21 06:40:49;;;;;;;9.10;3.67;;;8.40;52.20;;;;;;4969243;28;20289;-44
2022/01/21 06:43:15;;;;;;;9.13;3.17;;;8.50;52.70;;;;;;4955674;28;20490;-45
2022/01/21 06:45:41;;;;;;;4.73;3.30;;;8.50;52.50;;;;;;4968388;28;20501;-44
2022/01/21 06:48:08;;;;;;;7.27;4.17;;;8.60;52.50;;;;;;4968197;28;20494;-45
2022/01/21 06:50:37;;;;;;;7.40;3.40;;;8.70;52.10;;;;;;4960967;28;20454;-44
2022/01/21 06:53:03;;;;;;;9.30;3.50;;;8.80;52.00;;;;;;4965629;28;20450;-44
2022/01/21 06:55:29;;;;;;;10.23;3.90;;;8.70;51.30;;;;;;4967458;28;20998;-44
2022/01/21 06:57:55;;;;;;;6.83;3.60;;;8.70;51.50;;;;;;4964618;28;20565;-43
2022/01/21 07:00:21;;;;;;;6.43;3.33;;;8.70;51.50;;;;;;4963315;28;20242;-44
2022/01/21 07:02:48;;;;;;;12.00;3.57;;;8.60;51.60;;;;;;4967025;28;20237;-44
2022/01/21 07:05:14;;;;;;;4.97;3.33;;;8.70;51.60;;;;;;4969168;28;20794;-44
2022/01/21 07:07:40;;;;;;;8.13;3.37;;;8.60;51.70;;;;;;4965277;28;20558;-44
2022/01/21 07:10:07;;;;;;;6.83;3.27;;;8.60;51.50;;;;;;4966818;28;20810;-44
2022/01/21 07:12:34;;;;;;;5.77;3.93;;;8.60;51.40;;;;;;4961725;28;20805;-44
2022/01/21 07:14:59;;;;;;;5.60;3.50;;;8.30;51.60;;;;;;4961366;28;20447;-44
2022/01/21 07:17:25;;;;;;;6.10;3.90;;;8.30;52.00;;;;;;4963267;28;20450;-44
2022/01/21 07:19:51;;;;;;;10.03;4.10;;;8.30;52.10;;;;;;4974941;28;20190;-44
2022/01/21 07:22:16;;;;;;;7.87;3.90;;;8.10;52.20;;;;;;4964702;28;20598;-43
2022/01/21 07:24:42;;;;;;;15.33;3.77;;;8.10;52.50;;;;;;4967105;28;20211;-44
2022/01/21 07:27:07;;;;;;;6.83;3.27;;;8.10;52.50;;;;;;4967209;28;20215;-44
2022/01/21 07:29:33;;;;;;;7.17;3.60;;;8.20;52.80;;;;;;4968741;28;20207;-44
2022/01/21 07:31:59;;;;;;;9.53;4.83;;;8.30;52.50;;;;;;4963496;28;20195;-44
2022/01/21 07:34:26;;;;;;;9.13;4.13;;;8.30;52.10;;;;;;4967956;28;20199;-44
2022/01/21 07:36:53;;;;;;;8.60;3.23;;;8.30;52.00;;;;;;4974338;28;20446;-44
2022/01/21 07:39:19;;;;;;;5.47;2.93;;;8.30;52.00;;;;;;4970270;28;21070;-44
2022/01/21 07:41:45;;;;;;;8.97;4.33;;;8.20;52.10;;;;;;4968635;28;20497;-44
2022/01/21 07:44:12;;;;;;;9.37;5.80;;;8.10;52.20;;;;;;4965869;28;20195;-45
2022/01/21 07:46:39;;;;;;;32.23;17.50;;;8.20;52.30;;;;;;4968990;28;20945;-44
2022/01/21 07:49:05;;;;;;;11.30;6.30;;;8.10;52.40;;;;;;4967612;28;20462;-44
2022/01/21 07:51:30;;;;;;;9.23;5.10;;;8.20;52.70;;;;;;4969853;28;20545;-44
2022/01/21 07:53:56;;;;;;;6.00;3.90;;;8.50;52.20;;;;;;4974107;28;20202;-45
2022/01/21 07:56:23;;;;;;;11.70;4.20;;;8.80;51.80;;;;;;4968830;28;20197;-46
2022/01/21 07:58:49;;;;;;;11.20;4.50;;;9.10;51.00;;;;;;4974857;28;20206;-43
2022/01/21 08:01:15;;;;;;;8.13;4.33;;;9.60;50.40;;;;;;4973185;28;20446;-44
2022/01/21 08:03:40;;;;;;;10.50;3.90;;;9.90;48.90;;;;;;4972478;28;20847;-44
2022/01/21 08:06:06;;;;;;;9.57;3.90;;;10.00;47.30;;;;;;4970483;28;20227;-43
2022/01/21 08:08:32;;;;;;;8.07;4.40;;;9.90;48.10;;;;;;4973039;28;20307;-44
2022/01/21 08:10:57;;;;;;;8.50;4.20;;;9.80;48.50;;;;;;4971689;28;20242;-42
2022/01/21 08:13:23;;;;;;;5.80;3.60;;;9.50;48.60;;;;;;4971749;28;20190;-42
2022/01/21 08:15:49;;;;;;;6.07;3.70;;;9.30;49.00;;;;;;4973170;28;20204;-42
2022/01/21 08:18:15;;;;;;;9.10;4.03;;;8.90;49.90;;;;;;4970418;28;20646;-42
2022/01/21 08:20:42;;;;;;;8.30;4.60;;;8.60;50.70;;;;;;4972627;28;20321;-42
2022/01/21 08:23:09;;;;;;;6.97;4.90;;;8.60;51.40;;;;;;4970808;28;21283;-42
2022/01/21 08:25:34;;;;;;;9.67;4.00;;;8.60;51.30;;;;;;4973685;28;20431;-42
2022/01/21 08:28:00;;;;;;;7.33;3.43;;;8.50;51.30;;;;;;4972243;28;20484;-43
2022/01/21 08:30:25;;;;;;;7.40;4.53;;;8.40;51.70;;;;;;4974016;28;20219;-42
2022/01/21 08:32:51;;;;;;;6.77;3.73;;;8.40;51.70;;;;;;4975251;28;20299;-42
2022/01/21 08:35:17;;;;;;;6.70;3.87;;;8.20;51.80;;;;;;4976219;28;20606;-42
2022/01/21 08:37:43;;;;;;;7.80;3.53;;;8.20;51.90;;;;;;4973131;28;20282;-42
2022/01/21 08:40:09;;;;;;;9.23;4.70;;;8.10;52.10;;;;;;4977473;28;20525;-42
2022/01/21 08:42:34;;;;;;;12.73;5.27;;;8.20;52.20;;;;;;4982937;28;20566;-42
2022/01/21 08:45:00;;;;;;;7.93;4.00;;;8.10;52.30;;;;;;4967480;28;20431;-43
2022/01/21 08:47:26;;;;;;;13.30;4.20;;;8.10;52.80;;;;;;4967711;28;20226;-42
2022/01/21 08:49:53;;;;;;;10.73;4.43;;;8.30;52.70;;;;;;4973557;28;20215;-42
2022/01/21 08:52:20;;;;;;;7.63;4.73;;;8.40;52.10;;;;;;4973284;28;20195;-43
2022/01/21 08:54:47;;;;;;;10.47;4.57;;;8.30;52.10;;;;;;4977780;28;20941;-42
2022/01/21 08:57:13;;;;;;;12.80;4.50;;;8.20;52.40;;;;;;4972846;28;20430;-43
2022/01/21 08:59:38;;;;;;;7.33;4.87;;;8.20;52.60;;;;;;4971989;28;20442;-42
2022/01/21 09:02:04;;;;;;;7.07;4.43;;;8.40;52.50;;;;;;4973124;28;20430;-42
2022/01/21 09:04:30;;;;;;;6.50;3.90;;;8.30;52.00;;;;;;4972612;28;20261;-43
2022/01/21 09:06:56;;;;;;;7.50;4.43;;;8.30;52.00;;;;;;4972420;28;20192;-42
2022/01/21 09:09:21;;;;;;;11.50;4.63;;;8.10;52.10;;;;;;4972364;28;20295;-42
2022/01/21 09:11:47;;;;;;;8.10;4.10;;;7.90;52.30;;;;;;4972690;28;20781;-42
2022/01/21 09:14:13;;;;;;;16.50;8.10;;;7.80;52.80;;;;;;4977424;28;20223;-43
2022/01/21 09:16:42;;;;;;;10.10;5.20;;;7.80;53.10;;;;;;4969045;28;20210;-43
2022/01/21 09:19:07;;;;;;;11.07;5.80;;;8.00;53.20;;;;;;4972208;28;20290;-42
2022/01/21 09:21:37;;;;;;;10.50;5.40;;;8.10;52.80;;;;;;4974269;28;20866;-42
2022/01/21 09:24:04;;;;;;;9.70;5.30;;;8.30;52.50;;;;;;4973272;28;20203;-43
2022/01/21 09:26:30;;;;;;;11.70;5.20;;;8.40;52.30;;;;;;4972735;28;20530;-42
2022/01/21 09:28:57;;;;;;;8.57;5.03;;;8.30;51.90;;;;;;4970936;28;20573;-42
2022/01/21 09:31:23;;;;;;;9.30;5.07;;;8.40;51.60;;;;;;4971811;28;20201;-43
2022/01/21 09:33:49;;;;;;;11.73;4.60;;;8.30;51.50;;;;;;4971783;28;20846;-42
2022/01/21 09:36:17;;;;;;;11.80;4.73;;;8.20;51.70;;;;;;4971500;28;20443;-43
2022/01/21 09:38:42;;;;;;;12.47;4.63;;;8.30;51.80;;;;;;4971910;28;20203;-43
2022/01/21 09:41:09;;;;;;;11.50;5.00;;;8.30;51.60;;;;;;4971196;28;20470;-44
2022/01/21 09:43:37;;;;;;;12.53;5.60;;;8.20;52.00;;;;;;4973419;28;20211;-44
2022/01/21 09:46:05;;;;;;;8.90;5.00;;;8.20;52.10;;;;;;4966185;28;20485;-44
2022/01/21 09:48:37;;;;;;;8.20;4.80;;;8.20;52.20;;;;;;4969308;28;20545;-43
2022/01/21 09:51:03;;;;;;;11.90;5.13;;;8.40;52.30;;;;;;4976449;28;20946;-44
2022/01/21 09:53:33;;;;;;;8.40;7.33;;;8.30;51.80;;;;;;4964012;28;20493;-43
2022/01/21 09:56:01;;;;;;;12.33;5.63;;;8.20;52.30;;;;;;4966814;28;21009;-43
2022/01/21 09:58:28;;;;;;;10.50;5.60;;;8.30;52.40;;;;;;4979080;28;20429;-43
2022/01/21 10:00:57;;;;;;;11.47;5.10;;;8.20;52.20;;;;;;4966605;28;20466;-43
2022/01/21 10:03:23;;;;;;;9.23;4.90;;;8.00;52.50;;;;;;4971024;28;20435;-42
2022/01/21 10:05:49;;;;;;;15.07;5.53;;;8.10;52.40;;;;;;4971630;28;20442;-42
2022/01/21 10:08:15;;;;;;;12.03;5.60;;;8.00;52.50;;;;;;4970302;28;20489;-42
2022/01/21 10:10:43;;;;;;;11.50;4.93;;;7.90;52.80;;;;;;4968154;28;20442;-43
2022/01/21 10:13:10;;;;;;;7.33;4.53;;;8.00;53.20;;;;;;4968096;28;20199;-43
2022/01/21 10:15:37;;;;;;;9.20;5.07;;;8.10;53.20;;;;;;4973144;28;20439;-42
2022/01/21 10:18:21;;;;;;;7.97;5.53;;;8.10;53.10;;;;;;4974440;28;20438;-43
2022/01/21 10:21:13;;;;;;;12.73;5.37;;;8.00;53.40;;;;;;4972084;28;20438;-43
2022/01/21 10:23:42;;;;;;;13.47;5.73;;;8.00;53.60;;;;;;4968482;28;20488;-42
2022/01/21 10:26:09;;;;;;;10.40;5.40;;;8.00;53.60;;;;;;4969204;28;20946;-43
2022/01/21 10:28:37;;;;;;;13.57;5.23;;;8.00;53.60;;;;;;4970720;28;20486;-44
2022/01/21 10:31:18;;;;;;;15.83;4.90;;;7.80;53.10;;;;;;4969169;28;20919;-44
2022/01/21 10:33:49;;;;;;;12.50;6.73;;;7.80;53.30;;;;;;4968030;28;20486;-42
2022/01/21 10:36:24;;;;;;;6.47;4.07;;;7.90;53.40;;;;;;4970582;28;20439;-42
2022/01/21 10:38:52;;;;;;;10.07;4.50;;;7.60;53.40;;;;;;4975745;28;20887;-44
2022/01/21 10:41:19;;;;;;;7.87;4.00;;;7.70;53.60;;;;;;4967907;28;20470;-42
2022/01/21 10:44:03;;;;;;;12.80;4.67;;;7.60;53.50;;;;;;4971264;28;20437;-43
2022/01/21 10:46:28;;;;;;;12.40;5.40;;;7.70;53.50;;;;;;4969431;28;20447;-42
2022/01/21 10:49:06;;;;;;;9.40;5.83;;;7.80;53.40;;;;;;4965547;28;21048;-43
2022/01/21 10:51:35;;;;;;;8.30;4.70;;;8.00;53.40;;;;;;4976471;28;20206;-42
2022/01/21 10:54:26;;;;;;;11.70;4.67;;;8.00;53.00;;;;;;4970044;28;20440;-43
2022/01/21 10:57:19;;;;;;;14.47;5.27;;;7.90;53.20;;;;;;4969548;28;20466;-43
2022/01/21 10:59:53;;;;;;;8.27;4.40;;;8.00;53.20;;;;;;4971956;28;20453;-42
2022/01/21 11:02:35;;;;;;;10.30;5.13;;;7.90;53.30;;;;;;4971526;28;20441;-42
2022/01/21 11:05:05;;;;;;;8.00;4.90;;;8.10;53.20;;;;;;4976889;28;20807;-42
2022/01/21 11:07:44;;;;;;;11.87;5.33;;;8.30;52.90;;;;;;4964640;28;20561;-42
2022/01/21 11:10:36;;;;;;;10.77;4.83;;;8.40;52.70;;;;;;4970625;28;20454;-42
2022/01/21 11:13:20;;;;;;;8.33;4.00;;;8.40;52.50;;;;;;4968532;28;20439;-42
2022/01/21 11:15:50;;;;;;;9.00;4.37;;;8.50;52.30;;;;;;4967902;28;20453;-42
2022/01/21 11:18:19;;;;;;;6.77;4.17;;;8.40;52.10;;;;;;4972128;28;20445;-42
2022/01/21 11:20:48;;;;;;;9.23;4.33;;;8.30;52.10;;;;;;4974237;28;20430;-42
2022/01/21 11:23:15;;;;;;;9.83;6.37;;;8.40;52.10;;;;;;4975336;28;20443;-42
2022/01/21 11:25:54;;;;;;;6.50;5.60;;;8.40;52.00;;;;;;4973494;28;20453;-42
2022/01/21 11:28:25;;;;;;;9.20;4.23;;;8.50;51.80;;;;;;4976325;28;20551;-42
2022/01/21 11:30:52;;;;;;;12.93;3.90;;;8.50;51.50;;;;;;4969710;28;20495;-42
2022/01/21 11:33:19;;;;;;;9.23;4.23;;;8.60;51.40;;;;;;4973303;28;20449;-42
2022/01/21 11:35:50;;;;;;;8.80;4.33;;;8.60;51.50;;;;;;4971896;28;20431;-42
2022/01/21 11:38:17;;;;;;;6.70;4.03;;;8.60;51.70;;;;;;4970386;28;20941;-42
2022/01/21 11:40:43;;;;;;;7.73;3.63;;;8.50;51.40;;;;;;4976011;28;20620;-42
2022/01/21 11:43:10;;;;;;;7.27;3.87;;;8.30;51.50;;;;;;4974552;28;20442;-42
2022/01/21 11:50:42;;;;;;;9.97;4.00;;;8.00;52.20;;;;;;4975649;28;20438;-43
2022/01/21 11:53:08;;;;;;;8.40;3.77;;;7.90;52.50;;;;;;4974906;28;20427;-42
2022/01/21 11:55:42;;;;;;;7.00;3.93;;;8.00;52.60;;;;;;4977799;28;20439;-42
2022/01/21 11:58:14;;;;;;;13.07;3.90;;;8.40;52.50;;;;;;4973506;28;20822;-42
2022/01/21 12:00:40;;;;;;;9.50;4.20;;;8.40;51.70;;;;;;4974482;28;20443;-42
2022/01/21 12:03:07;;;;;;;11.67;3.97;;;8.40;51.50;;;;;;4972554;28;20423;-42
2022/01/21 12:05:36;;;;;;;10.67;3.80;;;8.50;51.90;;;;;;4973313;28;20504;-42
2022/01/21 12:08:05;;;;;;;8.63;4.70;;;8.40;51.60;;;;;;4973466;28;20540;-42
2022/01/21 12:10:36;;;;;;;8.70;4.30;;;8.20;51.50;;;;;;4972749;28;20435;-42
2022/01/21 12:13:10;;;;;;;8.43;4.30;;;8.30;51.70;;;;;;4961041;28;21204;-42
2022/01/21 12:21:03;;;;;;;8.17;3.50;;;8.10;51.60;;;;;;4974845;28;20502;-43
2022/01/21 12:23:30;;;;;;;6.63;3.43;;;8.10;51.80;;;;;;4973302;28;20523;-43
2022/01/21 12:26:11;;;;;;;10.00;4.03;;;8.20;52.40;;;;;;4972640;28;20439;-42
2022/01/21 12:29:06;;;;;;;5.07;3.60;;;8.20;51.70;;;;;;4972830;28;20902;-42
2022/01/21 12:31:40;;;;;;;7.70;3.93;;;8.10;51.90;;;;;;4969248;28;20513;-42
2022/01/21 12:34:10;;;;;;;8.07;3.80;;;8.10;52.10;;;;;;4973022;28;20439;-42
2022/01/21 12:36:41;;;;;;;10.07;3.80;;;8.10;52.20;;;;;;4972219;28;20435;-42
2022/01/21 12:39:45;;;;;;;8.17;3.27;;;8.20;52.20;;;;;;4972508;28;20470;-42
2022/01/21 12:42:20;;;;;;;11.53;3.83;;;8.30;52.40;;;;;;4970655;28;20559;-42
2022/01/21 12:44:47;;;;;;;6.97;2.90;;;8.30;51.90;;;;;;4972795;28;20815;-42
2022/01/21 12:47:43;;;;;;;7.20;2.90;;;8.30;52.00;;;;;;4972977;28;20831;-42
2022/01/21 12:50:29;;;;;;;8.07;2.70;;;8.00;52.10;;;;;;4963984;28;20465;-42
2022/01/21 12:53:13;;;;;;;15.83;3.60;;;8.00;52.80;;;;;;4971892;28;21326;-43
2022/01/21 12:56:03;;;;;;;5.13;3.10;;;8.10;52.80;;;;;;4972189;28;20485;-42
2022/01/21 12:58:31;;;;;;;8.13;3.67;;;8.00;52.80;;;;;;4970233;28;20439;-42
2022/01/21 13:00:57;;;;;;;6.13;3.83;;;8.10;53.00;;;;;;4971991;28;20435;-42
2022/01/21 13:03:34;;;;;;;7.13;3.07;;;8.30;53.00;;;;;;4971770;28;20788;-42
2022/01/21 13:06:12;;;;;;;8.13;3.23;;;8.20;52.90;;;;;;4972677;28;20198;-42
2022/01/21 13:08:44;;;;;;;5.97;4.03;;;8.20;53.10;;;;;;4972259;28;20505;-42
2022/01/21 13:11:16;;;;;;;7.73;3.20;;;8.40;53.20;;;;;;4972762;28;20447;-42
2022/01/21 13:13:50;;;;;;;5.10;2.63;;;8.30;52.90;;;;;;4978240;28;20463;-42
2022/01/21 13:16:27;;;;;;;13.57;4.03;;;8.30;52.70;;;;;;4971069;28;20977;-42
2022/01/21 13:19:05;;;;;;;7.80;3.20;;;8.40;52.70;;;;;;4969789;28;20450;-42
2022/01/21 13:21:32;;;;;;;4.10;2.80;;;8.50;52.90;;;;;;4969906;28;20442;-42
2022/01/21 13:24:01;;;;;;;10.37;3.63;;;8.60;52.90;;;;;;4974644;28;20459;-42
2022/01/21 13:26:31;;;;;;;5.53;3.30;;;8.50;52.30;;;;;;4967778;28;21316;-42
2022/01/21 13:29:06;;;;;;;17.07;5.30;;;8.30;52.10;;;;;;4963306;28;20494;-43
2022/01/21 13:31:45;;;;;;;9.03;4.27;;;8.20;52.60;;;;;;4970124;28;20937;-43
2022/01/21 13:34:14;;;;;;;7.67;3.03;;;8.30;52.60;;;;;;4970131;28;20446;-43
2022/01/21 13:36:48;;;;;;;4.23;2.83;;;8.50;52.40;;;;;;4974465;28;20443;-42
2022/01/21 13:39:19;;;;;;;14.03;3.20;;;8.60;52.00;;;;;;4973442;28;20828;-42
2022/01/21 13:41:50;;;;;;;6.20;2.97;;;8.50;52.10;;;;;;4977254;28;20483;-42
2022/01/21 13:44:42;;;;;;;6.70;2.37;;;8.60;52.30;;;;;;4970972;28;20435;-42
2022/01/21 13:47:31;;;;;;;8.03;2.60;;;8.40;52.50;;;;;;4971210;28;20458;-42
2022/01/21 13:50:09;;;;;;;8.40;3.10;;;8.30;52.60;;;;;;4971878;28;20451;-42
2022/01/21 13:52:45;;;;;;;7.20;2.67;;;8.30;53.10;;;;;;4971827;28;20445;-42
2022/01/21 13:55:29;;;;;;;7.30;2.90;;;8.40;52.40;;;;;;4970605;28;20446;-42
2022/01/21 13:57:59;;;;;;;6.57;2.80;;;8.40;52.30;;;;;;4971533;28;20466;-42
2022/01/21 14:00:42;;;;;;;4.30;2.90;;;8.50;52.40;;;;;;4972869;28;20565;-42
2022/01/21 14:03:30;;;;;;;10.73;3.03;;;8.70;52.10;;;;;;4972054;28;20452;-43
2022/01/21 14:06:04;;;;;;;5.20;2.60;;;8.80;52.00;;;;;;4971673;28;20577;-42